createdAt,value
2022-10-17T00:01:56.757Z,5.99
2022-10-17T00:04:23.519Z,5.99
2022-10-17T00:06:50.225Z,5.97
2022-10-17T00:09:17.079Z,5.96
2022-10-17T00:11:43.787Z,5.92
2022-10-17T00:14:10.513Z,5.93
2022-10-17T00:16:37.715Z,5.94
2022-10-17T00:19:05.532Z,5.95
2022-10-17T00:21:32.540Z,5.93
2022-10-17T00:23:59.624Z,5.88
2022-10-17T00:26:26.418Z,5.83
2022-10-17T00:28:53.776Z,5.87
2022-10-17T00:31:21.145Z,5.92
2022-10-17T00:33:48.035Z,5.87
2022-10-17T00:36:15.750Z,5.84
2022-10-17T00:38:43.653Z,5.82
2022-10-17T00:41:11.479Z,5.81
2022-10-17T00:43:53.518Z,5.81
2022-10-17T00:46:20.619Z,5.78
2022-10-17T00:48:48.835Z,5.77
2022-10-17T00:51:15.995Z,5.74
2022-10-17T00:53:42.993Z,5.67
2022-10-17T00:56:09.730Z,5.60
2022-10-17T00:58:36.482Z,5.53
2022-10-17T01:01:05.218Z,5.50
2022-10-17T01:03:31.997Z,5.50
2022-10-17T01:05:59.054Z,5.49
2022-10-17T01:08:25.896Z,5.49
2022-10-17T01:10:55.724Z,5.46
2022-10-17T01:13:37.631Z,5.45
2022-10-17T01:16:04.360Z,5.44
2022-10-17T01:18:49.838Z,5.39
2022-10-17T01:21:16.573Z,5.34
2022-10-17T01:23:54.544Z,5.32
2022-10-17T01:26:40.121Z,5.30
2022-10-17T01:29:19.827Z,5.26
2022-10-17T01:32:00.186Z,5.23
2022-10-17T01:34:30.032Z,5.21
2022-10-17T01:37:06.868Z,5.21
2022-10-17T01:39:41.625Z,5.22
2022-10-17T01:42:32.913Z,5.22
2022-10-17T01:45:03.687Z,5.19
2022-10-17T01:47:32.503Z,5.18
2022-10-17T01:50:04.935Z,5.13
2022-10-17T01:52:41.680Z,5.12
2022-10-17T01:55:11.615Z,5.07
2022-10-17T01:57:40.203Z,5.06
2022-10-17T02:00:11.350Z,5.03
2022-10-17T02:02:42.573Z,4.98
2022-10-17T02:05:09.493Z,4.97
2022-10-17T02:07:36.201Z,4.93
2022-10-17T02:10:04.811Z,4.92
2022-10-17T02:12:37.781Z,4.90
2022-10-17T02:15:13.368Z,4.89
2022-10-17T02:17:45.771Z,4.92
2022-10-17T02:20:35.783Z,4.92
2022-10-17T02:25:49.205Z,4.87
2022-10-17T02:28:21.352Z,4.86
2022-10-17T02:31:17.718Z,4.82
2022-10-17T02:33:49.180Z,4.81
2022-10-17T02:36:19.143Z,4.77
2022-10-17T02:38:46.689Z,4.81
2022-10-17T02:41:16.006Z,4.75
2022-10-17T02:43:45.541Z,4.74
2022-10-17T02:46:22.804Z,4.72
2022-10-17T02:48:55.520Z,4.66
2022-10-17T02:51:42.949Z,4.59
2022-10-17T02:54:19.055Z,4.53
2022-10-17T02:56:59.306Z,4.50
2022-10-17T02:59:27.250Z,4.43
2022-10-17T03:01:54.644Z,4.42
2022-10-17T03:04:21.469Z,4.40
2022-10-17T03:06:49.450Z,4.39
2022-10-17T03:09:16.239Z,4.36
2022-10-17T03:11:42.921Z,4.37
2022-10-17T03:14:09.659Z,4.39
2022-10-17T03:16:36.854Z,4.47
2022-10-17T03:19:04.662Z,4.47
2022-10-17T03:21:32.386Z,4.49
2022-10-17T03:23:59.311Z,4.47
2022-10-17T03:26:26.102Z,4.42
2022-10-17T03:28:54.538Z,4.35
2022-10-17T03:31:22.644Z,4.37
2022-10-17T03:33:50.781Z,4.39
2022-10-17T03:36:19.174Z,4.39
2022-10-17T03:38:47.172Z,4.31
2022-10-17T03:41:14.368Z,4.28
2022-10-17T03:43:41.180Z,4.24
2022-10-17T03:46:08.631Z,4.20
2022-10-17T03:48:36.846Z,4.22
2022-10-17T03:51:06.179Z,4.22
2022-10-17T03:53:36.654Z,4.43
2022-10-17T03:56:11.797Z,4.43
2022-10-17T03:58:38.809Z,4.45
2022-10-17T04:01:06.670Z,4.47
2022-10-17T04:03:33.644Z,4.44
2022-10-17T04:06:03.728Z,4.38
2022-10-17T04:08:33.468Z,4.33
2022-10-17T04:11:07.978Z,4.24
2022-10-17T04:13:35.235Z,4.16
2022-10-17T04:16:06.443Z,4.09
2022-10-17T04:18:35.507Z,4.03
2022-10-17T04:21:03.366Z,3.98
2022-10-17T04:23:31.080Z,3.98
2022-10-17T04:26:04.412Z,3.97
2022-10-17T04:28:32.124Z,4.09
2022-10-17T04:31:03.297Z,4.42
2022-10-17T04:33:35.633Z,4.37
2022-10-17T04:36:04.042Z,4.35
2022-10-17T04:38:31.914Z,4.26
2022-10-17T04:40:58.975Z,4.16
2022-10-17T04:43:25.918Z,4.09
2022-10-17T04:45:52.913Z,4.07
2022-10-17T04:48:19.716Z,4.03
2022-10-17T04:50:56.825Z,3.98
2022-10-17T04:53:37.361Z,4.00
2022-10-17T04:56:08.704Z,4.04
2022-10-17T04:58:35.913Z,4.06
2022-10-17T05:01:06.906Z,4.07
2022-10-17T05:03:35.074Z,4.09
2022-10-17T05:06:06.428Z,4.07
2022-10-17T05:08:33.294Z,4.04
2022-10-17T05:13:51.633Z,4.14
2022-10-17T05:16:18.851Z,4.19
2022-10-17T05:18:52.642Z,4.21
2022-10-17T05:21:20.473Z,4.25
2022-10-17T05:23:47.683Z,4.24
2022-10-17T05:26:14.723Z,4.26
2022-10-17T05:28:41.622Z,4.29
2022-10-17T05:31:10.021Z,4.38
2022-10-17T05:33:37.342Z,4.45
2022-10-17T05:36:04.772Z,4.52
2022-10-17T05:38:32.246Z,4.61
2022-10-17T05:41:00.170Z,4.68
2022-10-17T05:43:27.923Z,4.75
2022-10-17T05:45:54.918Z,5.23
2022-10-17T05:48:23.040Z,5.54
2022-10-17T05:50:50.654Z,5.65
2022-10-17T05:53:17.400Z,5.55
2022-10-17T05:55:55.166Z,5.47
2022-10-17T05:58:22.388Z,5.41
2022-10-17T06:01:00.416Z,5.45
2022-10-17T06:03:28.309Z,5.56
2022-10-17T06:05:55.333Z,5.54
2022-10-17T06:08:22.839Z,5.54
2022-10-17T06:10:50.712Z,5.58
2022-10-17T06:13:17.786Z,5.65
2022-10-17T06:17:24.740Z,6.01
2022-10-17T06:19:51.545Z,6.06
2022-10-17T06:22:18.368Z,6.09
2022-10-17T06:24:46.539Z,6.15
2022-10-17T06:27:15.101Z,6.20
2022-10-17T06:29:41.896Z,6.25
2022-10-17T06:32:12.596Z,6.31
2022-10-17T06:34:42.686Z,6.31
2022-10-17T06:37:10.270Z,6.28
2022-10-17T06:39:39.206Z,6.30
2022-10-17T06:42:11.331Z,6.37
2022-10-17T06:44:46.014Z,6.47
2022-10-17T06:47:31.539Z,6.58
2022-10-17T06:50:02.182Z,6.67
2022-10-17T06:52:39.609Z,6.85
2022-10-17T06:55:32.905Z,7.07
2022-10-17T06:58:22.837Z,7.05
2022-10-17T07:01:06.405Z,7.16
2022-10-17T07:03:34.483Z,7.29
2022-10-17T07:06:01.253Z,7.37
2022-10-17T07:08:28.713Z,7.53
2022-10-17T07:10:55.892Z,7.71
2022-10-17T07:13:23.204Z,7.84
2022-10-17T07:15:50.823Z,7.97
2022-10-17T07:18:18.200Z,8.03
2022-10-17T07:20:52.486Z,8.03
2022-10-17T07:23:19.224Z,8.17
2022-10-17T07:25:46.057Z,8.31
2022-10-17T07:28:14.036Z,8.39
2022-10-17T07:30:41.291Z,8.51
2022-10-17T07:33:11.495Z,8.65
2022-10-17T07:35:41.064Z,8.81
2022-10-17T07:38:08.344Z,8.87
2022-10-17T07:40:35.158Z,9.00
2022-10-17T07:43:02.164Z,9.19
2022-10-17T07:45:29.890Z,9.39
2022-10-17T07:47:57.844Z,9.58
2022-10-17T07:50:25.196Z,9.75
2022-10-17T07:52:51.913Z,9.88
2022-10-17T07:55:18.700Z,9.99
2022-10-17T07:57:45.392Z,10.28
2022-10-17T08:00:12.202Z,10.44
2022-10-17T08:02:41.710Z,10.51
2022-10-17T08:05:08.562Z,10.90
2022-10-17T08:07:35.272Z,11.23
2022-10-17T08:10:02.118Z,11.69
2022-10-17T08:12:32.589Z,12.08
2022-10-17T08:14:59.633Z,12.18
2022-10-17T08:17:26.472Z,12.37
2022-10-17T08:19:53.195Z,12.52
2022-10-17T08:22:19.942Z,12.60
2022-10-17T08:24:46.779Z,12.94
2022-10-17T08:27:13.964Z,13.35
2022-10-17T08:29:40.998Z,13.52
2022-10-17T08:32:09.942Z,13.78
2022-10-17T08:34:36.928Z,13.98
2022-10-17T08:37:03.689Z,14.17
2022-10-17T08:39:30.559Z,14.06
2022-10-17T08:42:06.142Z,13.93
2022-10-17T08:45:05.159Z,13.86
2022-10-17T08:47:53.387Z,13.84
2022-10-17T08:50:42.913Z,13.96
2022-10-17T08:53:29.707Z,14.36
2022-10-17T08:55:57.986Z,14.58
2022-10-17T08:58:27.960Z,14.83
2022-10-17T09:01:13.823Z,15.13
2022-10-17T09:03:49.706Z,15.44
2022-10-17T09:06:19.796Z,15.50
2022-10-17T09:08:58.033Z,15.62
2022-10-17T09:11:42.749Z,15.70
2022-10-17T09:14:20.560Z,15.67
2022-10-17T09:17:06.550Z,15.66
2022-10-17T09:19:39.141Z,15.72
2022-10-17T09:22:23.843Z,15.72
2022-10-17T09:25:04.069Z,15.87
2022-10-17T09:27:37.852Z,16.13
2022-10-17T09:30:40.052Z,16.41
2022-10-17T09:33:34.642Z,16.57
2022-10-17T09:36:04.375Z,16.54
2022-10-17T09:38:36.718Z,16.62
2022-10-17T09:41:06.587Z,16.84
2022-10-17T09:43:39.681Z,17.02
2022-10-17T09:46:13.529Z,17.27
2022-10-17T09:48:44.078Z,17.46
2022-10-17T09:51:15.080Z,17.61
2022-10-17T09:53:51.754Z,17.65
2022-10-17T09:56:19.469Z,17.65
2022-10-17T09:58:46.139Z,17.83
2022-10-17T10:01:19.556Z,17.97
2022-10-17T10:04:08.169Z,18.20
2022-10-17T10:06:35.189Z,18.26
2022-10-17T10:09:06.015Z,18.13
2022-10-17T10:12:11.327Z,18.24
2022-10-17T10:14:39.762Z,18.14
2022-10-17T10:17:25.715Z,18.20
2022-10-17T10:19:52.904Z,18.34
2022-10-17T10:22:21.025Z,18.59
2022-10-17T10:25:06.664Z,18.84
2022-10-17T10:30:00.443Z,19.21
2022-10-17T10:32:29.304Z,19.14
2022-10-17T10:34:56.509Z,19.03
2022-10-17T10:37:26.197Z,19.07
2022-10-17T10:40:01.187Z,19.30
2022-10-17T10:42:30.102Z,19.51
2022-10-17T10:45:04.776Z,19.55
2022-10-17T10:47:32.614Z,19.58
2022-10-17T10:50:18.023Z,19.51
2022-10-17T10:53:04.922Z,19.49
2022-10-17T10:55:34.768Z,19.55
2022-10-17T10:58:04.575Z,19.69
2022-10-17T11:00:32.946Z,19.96
2022-10-17T11:03:04.384Z,20.00
2022-10-17T11:05:41.314Z,20.04
2022-10-17T11:08:14.124Z,20.11
2022-10-17T11:10:59.725Z,20.31
2022-10-17T11:13:30.754Z,20.35
2022-10-17T11:16:20.227Z,20.43
2022-10-17T11:19:04.220Z,20.50
2022-10-17T11:21:37.987Z,20.57
2022-10-17T11:24:10.653Z,20.64
2022-10-17T11:26:41.684Z,20.61
2022-10-17T11:29:12.075Z,20.41
2022-10-17T11:31:44.972Z,20.27
2022-10-17T11:34:25.928Z,20.16
2022-10-17T11:36:54.796Z,20.27
2022-10-17T11:39:30.175Z,20.34
2022-10-17T11:42:03.540Z,20.42
2022-10-17T11:44:38.074Z,20.39
2022-10-17T11:47:13.372Z,20.29
2022-10-17T11:49:51.486Z,20.44
2022-10-17T11:52:31.864Z,20.46
2022-10-17T11:55:16.075Z,20.60
2022-10-17T11:57:45.904Z,20.74
2022-10-17T12:00:49.066Z,20.84
2022-10-17T12:03:22.533Z,20.87
2022-10-17T12:05:52.513Z,21.06
2022-10-17T12:08:31.579Z,21.28
2022-10-17T12:11:07.449Z,21.21
2022-10-17T12:13:35.544Z,21.43
2022-10-17T12:16:20.617Z,21.58
2022-10-17T12:19:02.689Z,21.81
2022-10-17T12:21:49.329Z,21.87
2022-10-17T12:24:31.726Z,21.85
2022-10-17T12:26:58.480Z,21.78
2022-10-17T12:29:28.850Z,21.69
2022-10-17T12:32:09.780Z,21.80
2022-10-17T12:34:37.350Z,21.83
2022-10-17T12:37:04.795Z,21.75
2022-10-17T12:39:31.589Z,21.68
2022-10-17T12:41:58.309Z,21.78
2022-10-17T12:44:34.952Z,21.49
2022-10-17T12:47:10.942Z,21.38
2022-10-17T12:49:46.998Z,21.54
2022-10-17T12:52:16.453Z,21.77
2022-10-17T12:55:00.188Z,21.67
2022-10-17T12:57:34.116Z,21.34
2022-10-17T13:00:25.067Z,21.14
2022-10-17T13:02:53.432Z,21.40
2022-10-17T13:05:28.583Z,21.43
2022-10-17T13:07:55.997Z,21.40
2022-10-17T13:10:28.071Z,21.37
2022-10-17T13:13:01.124Z,21.53
2022-10-17T13:15:28.035Z,21.57
2022-10-17T13:17:58.870Z,21.40
2022-10-17T13:20:31.314Z,21.49
2022-10-17T13:22:59.406Z,21.41
2022-10-17T13:25:26.844Z,21.62
2022-10-17T13:28:03.837Z,21.73
2022-10-17T13:30:32.523Z,21.99
2022-10-17T13:32:59.963Z,22.14
2022-10-17T13:35:55.416Z,22.18
2022-10-17T13:38:16.948Z,22.24
2022-10-17T13:40:49.997Z,22.38
2022-10-17T13:43:19.361Z,22.22
2022-10-17T13:45:48.531Z,22.05
2022-10-17T13:51:27.768Z,22.20
2022-10-17T13:53:55.846Z,22.29
2022-10-17T13:56:30.132Z,22.27
2022-10-17T13:59:00.575Z,22.02
2022-10-17T14:01:29.436Z,21.89
2022-10-17T14:04:08.285Z,21.60
2022-10-17T14:06:45.079Z,21.26
2022-10-17T14:09:28.331Z,21.31
2022-10-17T14:12:03.066Z,21.66
2022-10-17T14:14:46.095Z,22.15
2022-10-17T14:17:26.743Z,21.94
2022-10-17T14:20:16.103Z,21.61
2022-10-17T14:23:04.526Z,21.32
2022-10-17T14:25:38.141Z,20.95
2022-10-17T14:28:08.215Z,21.05
2022-10-17T14:30:55.881Z,21.35
2022-10-17T14:33:27.256Z,21.52
2022-10-17T14:35:57.586Z,21.54
2022-10-17T14:38:25.775Z,21.30
2022-10-17T14:41:09.761Z,21.05
2022-10-17T14:43:42.698Z,20.90
2022-10-17T14:46:15.977Z,20.78
2022-10-17T14:48:43.640Z,20.66
2022-10-17T14:51:16.970Z,20.53
2022-10-17T14:54:02.926Z,20.21
2022-10-17T14:56:40.597Z,19.34
2022-10-17T14:59:12.604Z,18.60
2022-10-17T15:01:45.039Z,18.15
2022-10-17T15:04:11.917Z,17.86
2022-10-17T15:06:40.740Z,17.53
2022-10-17T15:09:07.628Z,17.41
2022-10-17T15:11:34.460Z,17.19
2022-10-17T15:14:01.275Z,17.05
2022-10-17T15:16:32.049Z,16.84
2022-10-17T15:18:58.899Z,16.74
2022-10-17T15:21:38.464Z,16.50
2022-10-17T15:24:07.822Z,16.41
2022-10-17T15:26:35.314Z,16.26
2022-10-17T15:29:02.279Z,16.12
2022-10-17T15:31:31.690Z,16.04
2022-10-17T15:33:58.539Z,15.97
2022-10-17T15:36:28.824Z,15.84
2022-10-17T15:38:58.691Z,15.73
2022-10-17T15:41:28.518Z,15.68
2022-10-17T15:43:56.521Z,15.59
2022-10-17T15:46:26.601Z,15.58
2022-10-17T15:48:54.858Z,15.39
2022-10-17T15:51:22.376Z,15.34
2022-10-17T15:53:49.837Z,15.24
2022-10-17T15:56:23.670Z,15.18
2022-10-17T15:58:51.754Z,15.18
2022-10-17T16:01:30.133Z,15.07
2022-10-17T16:03:57.724Z,15.05
2022-10-17T16:06:25.710Z,14.90
2022-10-17T16:08:52.948Z,14.84
2022-10-17T16:11:29.090Z,14.73
2022-10-17T16:13:59.629Z,14.67
2022-10-17T16:16:26.660Z,14.60
2022-10-17T16:18:53.708Z,14.52
2022-10-17T16:21:25.502Z,14.43
2022-10-17T16:23:52.664Z,14.36
2022-10-17T16:26:19.865Z,14.29
2022-10-17T16:28:46.898Z,14.20
2022-10-17T16:31:23.590Z,14.23
2022-10-17T16:33:52.636Z,14.17
2022-10-17T16:36:19.736Z,14.17
2022-10-17T16:38:47.938Z,14.06
2022-10-17T16:41:38.196Z,14.07
2022-10-17T16:44:08.504Z,14.02
2022-10-17T16:46:37.541Z,13.96
2022-10-17T16:49:05.661Z,13.97
2022-10-17T16:51:35.887Z,13.93
2022-10-17T16:54:04.836Z,13.88
2022-10-17T16:56:33.090Z,13.84
2022-10-17T16:59:01.155Z,13.75
2022-10-17T17:01:29.572Z,13.65
2022-10-17T17:03:57.089Z,13.51
2022-10-17T17:06:27.329Z,13.24
2022-10-17T17:08:55.195Z,12.96
2022-10-17T17:11:25.135Z,12.78
2022-10-17T17:13:52.372Z,12.69
2022-10-17T17:16:21.975Z,12.68
2022-10-17T17:18:51.497Z,12.64
2022-10-17T17:21:18.382Z,12.53
2022-10-17T17:23:45.417Z,12.40
2022-10-17T17:26:21.737Z,12.33
2022-10-17T17:28:49.991Z,12.18
2022-10-17T17:31:22.523Z,12.05
2022-10-17T17:33:50.320Z,11.93
2022-10-17T17:36:21.241Z,11.83
2022-10-17T17:38:49.310Z,11.74
2022-10-17T17:41:18.256Z,11.57
2022-10-17T17:43:46.149Z,11.52
2022-10-17T17:46:15.259Z,11.45
2022-10-17T17:48:43.480Z,11.40
2022-10-17T17:51:12.141Z,11.32
2022-10-17T17:53:40.031Z,11.26
2022-10-17T17:56:10.607Z,11.10
2022-10-17T17:58:37.608Z,11.03
2022-10-17T18:01:12.366Z,10.96
2022-10-17T18:03:41.402Z,10.86
2022-10-17T18:06:08.558Z,10.86
2022-10-17T18:08:36.679Z,10.80
2022-10-17T18:11:04.856Z,10.63
2022-10-17T18:13:32.700Z,10.57
2022-10-17T18:16:01.630Z,10.50
2022-10-17T18:18:30.156Z,10.45
2022-10-17T18:21:01.076Z,10.38
2022-10-17T18:23:27.880Z,10.33
2022-10-17T18:26:02.471Z,10.28
2022-10-17T18:28:30.076Z,10.22
2022-10-17T18:31:01.025Z,10.14
2022-10-17T18:33:27.809Z,9.99
2022-10-17T18:35:58.137Z,9.90
2022-10-17T18:38:26.573Z,9.82
2022-10-17T18:41:02.865Z,9.74
2022-10-17T18:43:29.709Z,9.65
2022-10-17T18:46:01.199Z,9.67
2022-10-17T18:48:28.570Z,9.69
2022-10-17T18:50:55.402Z,9.62
2022-10-17T18:53:22.801Z,9.71
2022-10-17T18:55:51.315Z,9.73
2022-10-17T18:58:21.792Z,9.67
2022-10-17T19:00:50.373Z,9.68
2022-10-17T19:03:18.181Z,9.62
2022-10-17T19:05:46.393Z,9.58
2022-10-17T19:08:15.373Z,9.45
2022-10-17T19:10:43.230Z,9.29
2022-10-17T19:13:11.765Z,9.15
2022-10-17T19:15:39.554Z,9.09
2022-10-17T19:18:06.724Z,9.05
2022-10-17T19:20:33.633Z,8.98
2022-10-17T19:23:00.446Z,8.91
2022-10-17T19:25:30.479Z,8.83
2022-10-17T19:27:58.062Z,8.81
2022-10-17T19:30:25.150Z,8.79
2022-10-17T19:32:52.388Z,8.79
2022-10-17T19:35:19.219Z,8.73
2022-10-17T19:37:46.143Z,8.71
2022-10-17T19:40:13.844Z,8.67
2022-10-17T19:42:40.875Z,8.63
2022-10-17T19:45:09.038Z,8.60
2022-10-17T19:47:36.250Z,8.58
2022-10-17T19:52:31.210Z,8.29
2022-10-17T19:54:58.249Z,8.34
2022-10-17T19:57:25.970Z,8.26
2022-10-17T19:59:55.866Z,8.28
2022-10-17T20:02:23.564Z,8.23
2022-10-17T20:05:00.131Z,8.16
2022-10-17T20:07:37.190Z,8.08
2022-10-17T20:10:04.258Z,8.02
2022-10-17T20:12:31.374Z,7.92
2022-10-17T20:14:58.411Z,7.95
2022-10-17T20:17:25.726Z,7.99
2022-10-17T20:19:52.552Z,7.97
2022-10-17T20:22:19.389Z,7.94
2022-10-17T20:24:46.313Z,7.89
2022-10-17T20:27:13.177Z,7.91
2022-10-17T20:29:40.595Z,7.90
2022-10-17T20:32:07.452Z,7.84
2022-10-17T20:34:35.756Z,7.78
2022-10-17T20:37:02.749Z,7.68
2022-10-17T20:39:30.339Z,7.83
2022-10-17T20:41:57.149Z,7.77
2022-10-17T20:44:23.987Z,7.77
2022-10-17T20:47:01.209Z,7.70
2022-10-17T20:49:30.366Z,7.72
2022-10-17T20:51:57.456Z,7.73
2022-10-17T20:54:24.788Z,7.63
2022-10-17T20:56:52.216Z,7.50
2022-10-17T20:59:22.011Z,7.43
2022-10-17T21:01:48.952Z,7.34
2022-10-17T21:04:44.794Z,7.29
2022-10-17T21:07:04.207Z,7.26
2022-10-17T21:09:31.245Z,7.17
2022-10-17T21:11:58.491Z,7.13
2022-10-17T21:14:25.660Z,7.07
2022-10-17T21:16:52.913Z,6.93
2022-10-17T21:19:28.666Z,6.90
2022-10-17T21:21:58.443Z,6.88
2022-10-17T21:24:25.654Z,6.86
2022-10-17T21:26:55.781Z,6.81
2022-10-17T21:29:23.548Z,6.79
2022-10-17T21:31:50.639Z,6.72
2022-10-17T21:34:21.323Z,6.66
2022-10-17T21:36:48.491Z,6.70
2022-10-17T21:39:16.002Z,6.71
2022-10-17T21:41:43.916Z,6.66
2022-10-17T21:44:14.017Z,6.64
2022-10-17T21:46:41.500Z,6.57
2022-10-17T21:49:09.624Z,6.51
2022-10-17T21:51:36.432Z,6.50
2022-10-17T21:54:05.662Z,6.52
2022-10-17T21:56:34.841Z,6.43
2022-10-17T21:59:02.121Z,6.42
2022-10-17T22:01:31.845Z,6.36
2022-10-17T22:04:02.049Z,6.36
2022-10-17T22:06:47.098Z,6.33
2022-10-17T22:09:18.336Z,6.29
2022-10-17T22:11:48.313Z,6.23
2022-10-17T22:14:18.064Z,6.18
2022-10-17T22:16:52.248Z,6.18
2022-10-17T22:19:22.073Z,6.27
2022-10-17T22:21:49.743Z,6.27
2022-10-17T22:24:18.270Z,6.23
2022-10-17T22:26:45.788Z,6.15
2022-10-17T22:29:12.931Z,6.13
2022-10-17T22:31:39.902Z,6.06
2022-10-17T22:34:07.920Z,5.97
2022-10-17T22:36:35.254Z,5.96
2022-10-17T22:39:04.529Z,5.90
2022-10-17T22:41:31.356Z,5.89
2022-10-17T22:43:58.198Z,5.81
2022-10-17T22:46:25.832Z,5.77
2022-10-17T22:48:53.697Z,5.75
2022-10-17T22:51:21.339Z,5.71
2022-10-17T22:53:48.201Z,5.74
2022-10-17T22:56:18.623Z,5.73
2022-10-17T22:58:46.116Z,5.73
2022-10-17T23:01:21.943Z,5.71
2022-10-17T23:03:49.471Z,5.65
2022-10-17T23:06:16.440Z,5.56
2022-10-17T23:08:43.665Z,5.56
2022-10-17T23:11:11.236Z,5.55
2022-10-17T23:13:39.838Z,5.55
2022-10-17T23:16:07.282Z,5.55
2022-10-17T23:18:34.076Z,5.43
2022-10-17T23:21:00.838Z,5.47
2022-10-17T23:23:27.616Z,5.46
2022-10-17T23:25:54.493Z,5.41
2022-10-17T23:28:21.350Z,5.38
2022-10-17T23:30:48.194Z,5.30
2022-10-17T23:33:15.294Z,5.27
2022-10-17T23:35:42.624Z,5.20
2022-10-17T23:38:09.928Z,5.14
2022-10-17T23:40:36.949Z,5.12
2022-10-17T23:43:04.940Z,5.15
2022-10-17T23:45:34.801Z,5.07
2022-10-17T23:48:05.020Z,5.01
2022-10-17T23:50:31.808Z,5.02
2022-10-17T23:52:58.671Z,4.99
2022-10-17T23:55:25.575Z,4.99
2022-10-17T23:57:53.640Z,5.03
